sensor_id;sensor_type;location;lat;lon;timestamp;P1;durP1;ratioP1;P2;durP2;ratioP2
54937;SDS011;52756;52.826;6.214;2022-07-29T00:01:46;3.65;;;1.33;;
54937;SDS011;52756;52.826;6.214;2022-07-29T00:04:12;3.67;;;1.05;;
54937;SDS011;52756;52.826;6.214;2022-07-29T00:06:38;3.90;;;1.48;;
54937;SDS011;52756;52.826;6.214;2022-07-29T00:09:04;3.25;;;1.40;;
54937;SDS011;52756;52.826;6.214;2022-07-29T00:11:29;1.50;;;0.85;;
54937;SDS011;52756;52.826;6.214;2022-07-29T00:13:55;2.80;;;1.15;;
54937;SDS011;52756;52.826;6.214;2022-07-29T00:16:21;2.55;;;1.10;;
54937;SDS011;52756;52.826;6.214;2022-07-29T00:18:46;2.53;;;1.00;;
54937;SDS011;52756;52.826;6.214;2022-07-29T00:21:12;2.67;;;1.13;;
54937;SDS011;52756;52.826;6.214;2022-07-29T00:23:38;3.25;;;1.27;;
54937;SDS011;52756;52.826;6.214;2022-07-29T00:26:03;3.20;;;1.30;;
54937;SDS011;52756;52.826;6.214;2022-07-29T00:28:29;3.30;;;1.13;;
54937;SDS011;52756;52.826;6.214;2022-07-29T00:30:55;1.92;;;1.20;;
54937;SDS011;52756;52.826;6.214;2022-07-29T00:33:20;1.58;;;1.00;;
54937;SDS011;52756;52.826;6.214;2022-07-29T00:35:47;2.60;;;1.13;;
54937;SDS011;52756;52.826;6.214;2022-07-29T00:38:20;3.45;;;1.10;;
54937;SDS011;52756;52.826;6.214;2022-07-29T00:40:46;1.37;;;0.80;;
54937;SDS011;52756;52.826;6.214;2022-07-29T00:43:13;3.65;;;1.48;;
54937;SDS011;52756;52.826;6.214;2022-07-29T00:45:39;3.38;;;1.30;;
54937;SDS011;52756;52.826;6.214;2022-07-29T00:48:06;3.15;;;1.42;;
54937;SDS011;52756;52.826;6.214;2022-07-29T00:50:33;3.25;;;1.33;;
54937;SDS011;52756;52.826;6.214;2022-07-29T00:53:00;2.28;;;1.20;;
54937;SDS011;52756;52.826;6.214;2022-07-29T00:55:27;2.97;;;1.30;;
54937;SDS011;52756;52.826;6.214;2022-07-29T00:57:53;2.72;;;1.17;;
54937;SDS011;52756;52.826;6.214;2022-07-29T01:00:21;2.67;;;1.23;;
54937;SDS011;52756;52.826;6.214;2022-07-29T01:02:49;1.92;;;0.95;;
54937;SDS011;52756;52.826;6.214;2022-07-29T01:05:16;1.92;;;1.10;;
54937;SDS011;52756;52.826;6.214;2022-07-29T01:07:43;1.65;;;1.10;;
54937;SDS011;52756;52.826;6.214;2022-07-29T01:10:11;2.92;;;1.00;;
54937;SDS011;52756;52.826;6.214;2022-07-29T01:12:38;2.42;;;1.30;;
54937;SDS011;52756;52.826;6.214;2022-07-29T01:15:06;2.78;;;1.13;;
54937;SDS011;52756;52.826;6.214;2022-07-29T01:17:37;3.95;;;1.63;;
54937;SDS011;52756;52.826;6.214;2022-07-29T01:23:27;2.72;;;1.42;;
54937;SDS011;52756;52.826;6.214;2022-07-29T01:26:20;2.22;;;1.30;;
54937;SDS011;52756;52.826;6.214;2022-07-29T01:29:10;3.65;;;1.50;;
54937;SDS011;52756;52.826;6.214;2022-07-29T01:34:54;3.17;;;1.27;;
54937;SDS011;52756;52.826;6.214;2022-07-29T01:40:22;4.03;;;1.40;;
54937;SDS011;52756;52.826;6.214;2022-07-29T01:42:52;4.75;;;1.20;;
54937;SDS011;52756;52.826;6.214;2022-07-29T01:45:31;2.55;;;1.08;;
54937;SDS011;52756;52.826;6.214;2022-07-29T01:50:54;2.53;;;1.40;;
54937;SDS011;52756;52.826;6.214;2022-07-29T01:53:29;3.22;;;1.17;;
54937;SDS011;52756;52.826;6.214;2022-07-29T01:56:00;1.58;;;1.00;;
54937;SDS011;52756;52.826;6.214;2022-07-29T01:58:28;3.42;;;1.45;;
54937;SDS011;52756;52.826;6.214;2022-07-29T02:00:56;2.70;;;1.45;;
54937;SDS011;52756;52.826;6.214;2022-07-29T02:03:23;3.28;;;1.23;;
54937;SDS011;52756;52.826;6.214;2022-07-29T02:05:51;4.88;;;1.58;;
54937;SDS011;52756;52.826;6.214;2022-07-29T02:08:18;2.30;;;1.10;;
54937;SDS011;52756;52.826;6.214;2022-07-29T02:10:44;2.80;;;1.55;;
54937;SDS011;52756;52.826;6.214;2022-07-29T02:13:12;2.88;;;1.15;;
54937;SDS011;52756;52.826;6.214;2022-07-29T02:15:39;2.38;;;1.00;;
54937;SDS011;52756;52.826;6.214;2022-07-29T02:18:08;4.13;;;1.60;;
54937;SDS011;52756;52.826;6.214;2022-07-29T02:20:47;3.53;;;1.20;;
54937;SDS011;52756;52.826;6.214;2022-07-29T02:23:14;5.35;;;1.40;;
54937;SDS011;52756;52.826;6.214;2022-07-29T02:25:44;2.63;;;1.27;;
54937;SDS011;52756;52.826;6.214;2022-07-29T02:28:12;1.65;;;0.90;;
54937;SDS011;52756;52.826;6.214;2022-07-29T02:30:40;3.13;;;1.17;;
54937;SDS011;52756;52.826;6.214;2022-07-29T02:33:08;3.95;;;1.40;;
54937;SDS011;52756;52.826;6.214;2022-07-29T02:35:37;3.78;;;1.73;;
54937;SDS011;52756;52.826;6.214;2022-07-29T02:38:05;3.65;;;1.58;;
54937;SDS011;52756;52.826;6.214;2022-07-29T02:40:49;2.97;;;1.13;;
54937;SDS011;52756;52.826;6.214;2022-07-29T02:43:16;3.50;;;1.25;;
54937;SDS011;52756;52.826;6.214;2022-07-29T02:45:43;2.50;;;1.15;;
54937;SDS011;52756;52.826;6.214;2022-07-29T02:48:13;3.40;;;1.20;;
54937;SDS011;52756;52.826;6.214;2022-07-29T02:50:44;2.00;;;1.15;;
54937;SDS011;52756;52.826;6.214;2022-07-29T02:53:22;3.60;;;1.05;;
54937;SDS011;52756;52.826;6.214;2022-07-29T02:55:54;3.65;;;1.30;;
54937;SDS011;52756;52.826;6.214;2022-07-29T02:58:24;4.45;;;1.98;;
54937;SDS011;52756;52.826;6.214;2022-07-29T03:00:53;4.82;;;1.35;;
54937;SDS011;52756;52.826;6.214;2022-07-29T03:03:21;2.75;;;1.40;;
54937;SDS011;52756;52.826;6.214;2022-07-29T03:05:52;2.15;;;1.15;;
54937;SDS011;52756;52.826;6.214;2022-07-29T03:08:23;4.32;;;1.30;;
54937;SDS011;52756;52.826;6.214;2022-07-29T03:10:50;3.08;;;1.27;;
54937;SDS011;52756;52.826;6.214;2022-07-29T03:13:17;3.53;;;1.10;;
54937;SDS011;52756;52.826;6.214;2022-07-29T03:15:43;6.50;;;1.48;;
54937;SDS011;52756;52.826;6.214;2022-07-29T03:18:10;2.50;;;1.08;;
54937;SDS011;52756;52.826;6.214;2022-07-29T03:20:39;2.72;;;1.15;;
54937;SDS011;52756;52.826;6.214;2022-07-29T03:23:05;2.40;;;1.00;;
54937;SDS011;52756;52.826;6.214;2022-07-29T03:25:32;2.70;;;1.17;;
54937;SDS011;52756;52.826;6.214;2022-07-29T03:27:58;1.90;;;1.00;;
54937;SDS011;52756;52.826;6.214;2022-07-29T03:30:24;2.85;;;1.10;;
54937;SDS011;52756;52.826;6.214;2022-07-29T03:32:51;2.80;;;1.10;;
54937;SDS011;52756;52.826;6.214;2022-07-29T03:35:17;3.80;;;1.58;;
54937;SDS011;52756;52.826;6.214;2022-07-29T03:37:44;2.47;;;1.10;;
54937;SDS011;52756;52.826;6.214;2022-07-29T03:40:11;4.00;;;1.20;;
54937;SDS011;52756;52.826;6.214;2022-07-29T03:45:12;3.75;;;1.38;;
54937;SDS011;52756;52.826;6.214;2022-07-29T03:47:41;3.05;;;1.10;;
54937;SDS011;52756;52.826;6.214;2022-07-29T03:50:11;2.60;;;1.63;;
54937;SDS011;52756;52.826;6.214;2022-07-29T03:52:39;2.63;;;1.40;;
54937;SDS011;52756;52.826;6.214;2022-07-29T03:55:06;3.58;;;1.20;;
54937;SDS011;52756;52.826;6.214;2022-07-29T03:57:33;3.75;;;1.13;;
54937;SDS011;52756;52.826;6.214;2022-07-29T04:00:00;1.52;;;1.10;;
54937;SDS011;52756;52.826;6.214;2022-07-29T04:02:28;3.10;;;1.10;;
54937;SDS011;52756;52.826;6.214;2022-07-29T04:04:55;4.20;;;1.45;;
54937;SDS011;52756;52.826;6.214;2022-07-29T04:07:20;3.85;;;1.40;;
54937;SDS011;52756;52.826;6.214;2022-07-29T04:09:46;5.55;;;1.50;;
54937;SDS011;52756;52.826;6.214;2022-07-29T04:12:12;1.83;;;1.10;;
54937;SDS011;52756;52.826;6.214;2022-07-29T04:14:37;3.00;;;1.13;;
54937;SDS011;52756;52.826;6.214;2022-07-29T04:17:04;3.35;;;1.42;;
54937;SDS011;52756;52.826;6.214;2022-07-29T04:19:30;4.85;;;1.38;;
54937;SDS011;52756;52.826;6.214;2022-07-29T04:21:57;3.33;;;0.93;;
54937;SDS011;52756;52.826;6.214;2022-07-29T04:24:23;2.03;;;0.90;;
54937;SDS011;52756;52.826;6.214;2022-07-29T04:26:49;3.75;;;1.70;;
54937;SDS011;52756;52.826;6.214;2022-07-29T04:29:14;2.45;;;1.15;;
54937;SDS011;52756;52.826;6.214;2022-07-29T04:31:40;4.00;;;1.42;;
54937;SDS011;52756;52.826;6.214;2022-07-29T04:34:07;2.20;;;1.15;;
54937;SDS011;52756;52.826;6.214;2022-07-29T04:36:34;3.83;;;1.10;;
54937;SDS011;52756;52.826;6.214;2022-07-29T04:38:59;4.05;;;1.25;;
54937;SDS011;52756;52.826;6.214;2022-07-29T04:41:26;3.47;;;1.33;;
54937;SDS011;52756;52.826;6.214;2022-07-29T04:43:52;2.55;;;1.15;;
54937;SDS011;52756;52.826;6.214;2022-07-29T04:46:18;4.28;;;1.20;;
54937;SDS011;52756;52.826;6.214;2022-07-29T04:48:47;1.95;;;1.02;;
54937;SDS011;52756;52.826;6.214;2022-07-29T04:51:13;4.63;;;1.40;;
54937;SDS011;52756;52.826;6.214;2022-07-29T04:53:39;2.88;;;1.50;;
54937;SDS011;52756;52.826;6.214;2022-07-29T04:56:05;2.53;;;1.33;;
54937;SDS011;52756;52.826;6.214;2022-07-29T04:58:30;4.72;;;1.45;;
54937;SDS011;52756;52.826;6.214;2022-07-29T05:00:58;3.70;;;1.27;;
54937;SDS011;52756;52.826;6.214;2022-07-29T05:03:24;2.92;;;1.30;;
54937;SDS011;52756;52.826;6.214;2022-07-29T05:05:50;3.50;;;1.52;;
54937;SDS011;52756;52.826;6.214;2022-07-29T05:08:15;2.03;;;1.10;;
54937;SDS011;52756;52.826;6.214;2022-07-29T05:10:41;3.53;;;1.30;;
54937;SDS011;52756;52.826;6.214;2022-07-29T05:13:07;3.13;;;1.30;;
54937;SDS011;52756;52.826;6.214;2022-07-29T05:15:34;2.88;;;1.27;;
54937;SDS011;52756;52.826;6.214;2022-07-29T05:18:00;2.33;;;1.38;;
54937;SDS011;52756;52.826;6.214;2022-07-29T05:20:26;3.83;;;1.27;;
54937;SDS011;52756;52.826;6.214;2022-07-29T05:22:57;3.42;;;1.38;;
54937;SDS011;52756;52.826;6.214;2022-07-29T05:25:24;4.85;;;1.60;;
54937;SDS011;52756;52.826;6.214;2022-07-29T05:27:51;4.80;;;1.40;;
54937;SDS011;52756;52.826;6.214;2022-07-29T05:30:17;2.72;;;1.17;;
54937;SDS011;52756;52.826;6.214;2022-07-29T05:32:43;2.65;;;1.40;;
54937;SDS011;52756;52.826;6.214;2022-07-29T05:35:08;4.18;;;1.30;;
54937;SDS011;52756;52.826;6.214;2022-07-29T05:37:35;2.72;;;1.33;;
54937;SDS011;52756;52.826;6.214;2022-07-29T05:40:00;4.30;;;1.55;;
54937;SDS011;52756;52.826;6.214;2022-07-29T05:42:27;3.17;;;1.50;;
54937;SDS011;52756;52.826;6.214;2022-07-29T05:44:54;3.47;;;1.10;;
54937;SDS011;52756;52.826;6.214;2022-07-29T05:47:20;2.97;;;1.30;;
54937;SDS011;52756;52.826;6.214;2022-07-29T05:49:45;5.03;;;1.27;;
54937;SDS011;52756;52.826;6.214;2022-07-29T05:52:11;2.25;;;1.13;;
54937;SDS011;52756;52.826;6.214;2022-07-29T05:54:38;3.95;;;1.30;;
54937;SDS011;52756;52.826;6.214;2022-07-29T05:57:04;6.72;;;1.52;;
54937;SDS011;52756;52.826;6.214;2022-07-29T05:59:31;4.15;;;1.55;;
54937;SDS011;52756;52.826;6.214;2022-07-29T06:02:00;5.95;;;1.48;;
54937;SDS011;52756;52.826;6.214;2022-07-29T06:04:25;5.95;;;1.52;;
54937;SDS011;52756;52.826;6.214;2022-07-29T06:06:51;3.60;;;1.63;;
54937;SDS011;52756;52.826;6.214;2022-07-29T06:09:17;3.53;;;1.75;;
54937;SDS011;52756;52.826;6.214;2022-07-29T06:11:43;2.83;;;1.42;;
54937;SDS011;52756;52.826;6.214;2022-07-29T06:14:08;3.20;;;1.60;;
54937;SDS011;52756;52.826;6.214;2022-07-29T06:16:34;2.70;;;1.40;;
54937;SDS011;52756;52.826;6.214;2022-07-29T06:19:00;5.35;;;1.73;;
54937;SDS011;52756;52.826;6.214;2022-07-29T06:21:25;4.30;;;1.70;;
54937;SDS011;52756;52.826;6.214;2022-07-29T06:23:51;3.28;;;1.30;;
54937;SDS011;52756;52.826;6.214;2022-07-29T06:26:17;4.10;;;1.80;;
54937;SDS011;52756;52.826;6.214;2022-07-29T06:28:42;4.28;;;1.67;;
54937;SDS011;52756;52.826;6.214;2022-07-29T06:31:08;4.07;;;1.48;;
54937;SDS011;52756;52.826;6.214;2022-07-29T06:33:34;4.47;;;1.58;;
54937;SDS011;52756;52.826;6.214;2022-07-29T06:35:59;5.10;;;1.55;;
54937;SDS011;52756;52.826;6.214;2022-07-29T06:38:25;3.30;;;1.42;;
54937;SDS011;52756;52.826;6.214;2022-07-29T06:40:51;2.83;;;1.33;;
54937;SDS011;52756;52.826;6.214;2022-07-29T06:43:27;2.63;;;1.50;;
54937;SDS011;52756;52.826;6.214;2022-07-29T06:45:56;3.97;;;1.42;;
54937;SDS011;52756;52.826;6.214;2022-07-29T06:48:23;4.30;;;1.60;;
54937;SDS011;52756;52.826;6.214;2022-07-29T06:50:48;5.00;;;1.60;;
54937;SDS011;52756;52.826;6.214;2022-07-29T06:53:14;4.93;;;1.50;;
54937;SDS011;52756;52.826;6.214;2022-07-29T06:55:40;4.22;;;1.65;;
54937;SDS011;52756;52.826;6.214;2022-07-29T06:58:06;4.20;;;1.40;;
54937;SDS011;52756;52.826;6.214;2022-07-29T07:00:32;4.03;;;2.05;;
54937;SDS011;52756;52.826;6.214;2022-07-29T07:02:58;1.70;;;1.10;;
54937;SDS011;52756;52.826;6.214;2022-07-29T07:05:23;3.90;;;1.50;;
54937;SDS011;52756;52.826;6.214;2022-07-29T07:07:49;2.83;;;1.33;;
54937;SDS011;52756;52.826;6.214;2022-07-29T07:10:15;4.20;;;1.50;;
54937;SDS011;52756;52.826;6.214;2022-07-29T07:12:40;5.43;;;2.15;;
54937;SDS011;52756;52.826;6.214;2022-07-29T07:15:06;4.22;;;2.10;;
54937;SDS011;52756;52.826;6.214;2022-07-29T07:17:32;2.17;;;1.40;;
54937;SDS011;52756;52.826;6.214;2022-07-29T07:19:58;3.83;;;1.58;;
54937;SDS011;52756;52.826;6.214;2022-07-29T07:22:23;5.35;;;2.10;;
54937;SDS011;52756;52.826;6.214;2022-07-29T07:24:50;7.00;;;2.10;;
54937;SDS011;52756;52.826;6.214;2022-07-29T07:27:16;4.85;;;1.33;;
54937;SDS011;52756;52.826;6.214;2022-07-29T07:29:41;4.82;;;2.15;;
54937;SDS011;52756;52.826;6.214;2022-07-29T07:32:07;4.22;;;1.88;;
54937;SDS011;52756;52.826;6.214;2022-07-29T07:34:33;4.05;;;1.90;;
54937;SDS011;52756;52.826;6.214;2022-07-29T07:36:58;4.38;;;1.77;;
54937;SDS011;52756;52.826;6.214;2022-07-29T07:39:24;4.45;;;1.40;;
54937;SDS011;52756;52.826;6.214;2022-07-29T07:41:51;3.50;;;1.50;;
54937;SDS011;52756;52.826;6.214;2022-07-29T07:44:17;3.70;;;1.70;;
54937;SDS011;52756;52.826;6.214;2022-07-29T07:46:45;2.88;;;1.92;;
54937;SDS011;52756;52.826;6.214;2022-07-29T07:49:11;4.05;;;1.55;;
54937;SDS011;52756;52.826;6.214;2022-07-29T07:51:37;2.90;;;1.25;;
54937;SDS011;52756;52.826;6.214;2022-07-29T07:54:03;6.75;;;1.85;;
54937;SDS011;52756;52.826;6.214;2022-07-29T07:56:29;3.72;;;1.77;;
54937;SDS011;52756;52.826;6.214;2022-07-29T07:58:54;2.63;;;1.60;;
54937;SDS011;52756;52.826;6.214;2022-07-29T08:01:20;2.88;;;1.50;;
54937;SDS011;52756;52.826;6.214;2022-07-29T08:03:48;3.67;;;1.60;;
54937;SDS011;52756;52.826;6.214;2022-07-29T08:06:16;2.80;;;1.70;;
54937;SDS011;52756;52.826;6.214;2022-07-29T08:08:42;5.78;;;2.78;;
54937;SDS011;52756;52.826;6.214;2022-07-29T08:11:08;5.57;;;2.03;;
54937;SDS011;52756;52.826;6.214;2022-07-29T08:13:33;4.68;;;1.75;;
54937;SDS011;52756;52.826;6.214;2022-07-29T08:15:59;5.18;;;2.00;;
54937;SDS011;52756;52.826;6.214;2022-07-29T08:18:37;6.00;;;2.00;;
54937;SDS011;52756;52.826;6.214;2022-07-29T08:21:04;4.85;;;2.10;;
54937;SDS011;52756;52.826;6.214;2022-07-29T08:23:30;6.07;;;2.20;;
54937;SDS011;52756;52.826;6.214;2022-07-29T08:26:03;4.50;;;2.20;;
54937;SDS011;52756;52.826;6.214;2022-07-29T08:28:42;5.32;;;1.98;;
54937;SDS011;52756;52.826;6.214;2022-07-29T08:31:14;5.68;;;2.47;;
54937;SDS011;52756;52.826;6.214;2022-07-29T08:33:41;5.25;;;2.42;;
54937;SDS011;52756;52.826;6.214;2022-07-29T08:36:07;5.93;;;2.38;;
54937;SDS011;52756;52.826;6.214;2022-07-29T08:38:33;4.75;;;2.40;;
54937;SDS011;52756;52.826;6.214;2022-07-29T08:41:01;5.80;;;2.45;;
54937;SDS011;52756;52.826;6.214;2022-07-29T08:43:28;4.38;;;2.30;;
54937;SDS011;52756;52.826;6.214;2022-07-29T08:45:54;5.75;;;2.20;;
54937;SDS011;52756;52.826;6.214;2022-07-29T08:48:21;4.35;;;2.08;;
54937;SDS011;52756;52.826;6.214;2022-07-29T08:50:54;4.72;;;2.03;;
54937;SDS011;52756;52.826;6.214;2022-07-29T08:53:21;3.55;;;1.83;;
54937;SDS011;52756;52.826;6.214;2022-07-29T08:55:51;4.95;;;2.35;;
54937;SDS011;52756;52.826;6.214;2022-07-29T08:58:18;5.97;;;2.05;;
54937;SDS011;52756;52.826;6.214;2022-07-29T09:00:46;5.97;;;2.28;;
54937;SDS011;52756;52.826;6.214;2022-07-29T09:03:16;5.80;;;2.25;;
54937;SDS011;52756;52.826;6.214;2022-07-29T09:05:47;6.55;;;2.33;;
54937;SDS011;52756;52.826;6.214;2022-07-29T09:08:14;3.25;;;1.70;;
54937;SDS011;52756;52.826;6.214;2022-07-29T09:10:41;4.90;;;2.17;;
54937;SDS011;52756;52.826;6.214;2022-07-29T09:13:07;4.72;;;2.30;;
54937;SDS011;52756;52.826;6.214;2022-07-29T09:15:33;4.32;;;1.85;;
54937;SDS011;52756;52.826;6.214;2022-07-29T09:17:59;8.73;;;2.65;;
54937;SDS011;52756;52.826;6.214;2022-07-29T09:20:25;4.43;;;1.70;;
54937;SDS011;52756;52.826;6.214;2022-07-29T09:23:11;5.25;;;2.10;;
54937;SDS011;52756;52.826;6.214;2022-07-29T09:25:38;4.95;;;2.03;;
54937;SDS011;52756;52.826;6.214;2022-07-29T09:28:09;5.05;;;2.17;;
54937;SDS011;52756;52.826;6.214;2022-07-29T09:30:36;3.72;;;2.15;;
54937;SDS011;52756;52.826;6.214;2022-07-29T09:33:17;4.72;;;2.20;;
54937;SDS011;52756;52.826;6.214;2022-07-29T09:35:43;4.45;;;1.98;;
54937;SDS011;52756;52.826;6.214;2022-07-29T09:38:10;5.40;;;2.25;;
54937;SDS011;52756;52.826;6.214;2022-07-29T09:40:36;6.60;;;2.05;;
54937;SDS011;52756;52.826;6.214;2022-07-29T09:43:09;7.60;;;2.55;;
54937;SDS011;52756;52.826;6.214;2022-07-29T09:45:38;3.20;;;2.10;;
54937;SDS011;52756;52.826;6.214;2022-07-29T09:48:21;5.38;;;2.30;;
54937;SDS011;52756;52.826;6.214;2022-07-29T09:50:48;4.47;;;2.25;;
54937;SDS011;52756;52.826;6.214;2022-07-29T09:53:33;8.77;;;2.25;;
54937;SDS011;52756;52.826;6.214;2022-07-29T09:56:01;4.20;;;1.90;;
54937;SDS011;52756;52.826;6.214;2022-07-29T09:58:27;5.15;;;2.40;;
54937;SDS011;52756;52.826;6.214;2022-07-29T10:00:53;7.63;;;2.40;;
54937;SDS011;52756;52.826;6.214;2022-07-29T10:03:20;6.10;;;2.10;;
54937;SDS011;52756;52.826;6.214;2022-07-29T10:05:46;7.05;;;2.55;;
54937;SDS011;52756;52.826;6.214;2022-07-29T10:08:29;3.78;;;2.10;;
54937;SDS011;52756;52.826;6.214;2022-07-29T10:11:08;5.60;;;2.20;;
54937;SDS011;52756;52.826;6.214;2022-07-29T10:13:38;3.47;;;1.92;;
54937;SDS011;52756;52.826;6.214;2022-07-29T10:16:05;4.25;;;2.03;;
54937;SDS011;52756;52.826;6.214;2022-07-29T10:18:32;5.72;;;2.50;;
54937;SDS011;52756;52.826;6.214;2022-07-29T10:20:58;5.63;;;2.58;;
54937;SDS011;52756;52.826;6.214;2022-07-29T10:23:26;3.53;;;2.10;;
54937;SDS011;52756;52.826;6.214;2022-07-29T10:25:53;5.35;;;2.05;;
54937;SDS011;52756;52.826;6.214;2022-07-29T10:28:19;3.72;;;1.92;;
54937;SDS011;52756;52.826;6.214;2022-07-29T10:30:45;4.85;;;2.30;;
54937;SDS011;52756;52.826;6.214;2022-07-29T10:44:03;7.13;;;2.78;;
54937;SDS011;52756;52.826;6.214;2022-07-29T10:46:37;6.43;;;2.13;;
54937;SDS011;52756;52.826;6.214;2022-07-29T10:49:08;6.53;;;2.20;;
54937;SDS011;52756;52.826;6.214;2022-07-29T10:54:17;6.10;;;2.22;;
54937;SDS011;52756;52.826;6.214;2022-07-29T10:56:44;5.80;;;2.10;;
54937;SDS011;52756;52.826;6.214;2022-07-29T11:01:45;5.95;;;2.75;;
54937;SDS011;52756;52.826;6.214;2022-07-29T11:04:12;4.30;;;2.80;;
54937;SDS011;52756;52.826;6.214;2022-07-29T11:07:06;6.07;;;2.50;;
54937;SDS011;52756;52.826;6.214;2022-07-29T11:09:36;3.65;;;1.88;;
54937;SDS011;52756;52.826;6.214;2022-07-29T11:12:01;6.65;;;2.88;;
54937;SDS011;52756;52.826;6.214;2022-07-29T11:14:54;5.07;;;2.22;;
54937;SDS011;52756;52.826;6.214;2022-07-29T11:17:22;4.88;;;2.30;;
54937;SDS011;52756;52.826;6.214;2022-07-29T11:19:48;6.25;;;2.88;;
54937;SDS011;52756;52.826;6.214;2022-07-29T11:22:32;7.38;;;2.83;;
54937;SDS011;52756;52.826;6.214;2022-07-29T11:25:12;5.20;;;2.55;;
54937;SDS011;52756;52.826;6.214;2022-07-29T11:27:42;8.05;;;2.45;;
54937;SDS011;52756;52.826;6.214;2022-07-29T11:30:09;6.90;;;2.53;;
54937;SDS011;52756;52.826;6.214;2022-07-29T11:32:40;6.45;;;2.80;;
54937;SDS011;52756;52.826;6.214;2022-07-29T11:35:17;9.35;;;3.75;;
54937;SDS011;52756;52.826;6.214;2022-07-29T11:37:45;5.93;;;2.47;;
54937;SDS011;52756;52.826;6.214;2022-07-29T11:40:12;6.65;;;3.15;;
54937;SDS011;52756;52.826;6.214;2022-07-29T11:42:41;4.65;;;2.60;;
54937;SDS011;52756;52.826;6.214;2022-07-29T11:47:41;3.65;;;2.03;;
54937;SDS011;52756;52.826;6.214;2022-07-29T11:50:11;4.40;;;2.28;;
54937;SDS011;52756;52.826;6.214;2022-07-29T11:52:42;3.97;;;1.70;;
54937;SDS011;52756;52.826;6.214;2022-07-29T11:55:12;5.60;;;2.35;;
54937;SDS011;52756;52.826;6.214;2022-07-29T11:58:01;3.25;;;2.00;;
54937;SDS011;52756;52.826;6.214;2022-07-29T12:00:29;4.18;;;2.25;;
54937;SDS011;52756;52.826;6.214;2022-07-29T12:03:06;7.25;;;2.42;;
54937;SDS011;52756;52.826;6.214;2022-07-29T12:05:38;4.20;;;2.00;;
54937;SDS011;52756;52.826;6.214;2022-07-29T12:08:09;5.97;;;2.13;;
54937;SDS011;52756;52.826;6.214;2022-07-29T12:10:44;5.00;;;2.03;;
54937;SDS011;52756;52.826;6.214;2022-07-29T12:13:11;5.00;;;2.05;;
54937;SDS011;52756;52.826;6.214;2022-07-29T12:15:38;5.60;;;2.05;;
54937;SDS011;52756;52.826;6.214;2022-07-29T12:18:12;7.07;;;2.45;;
54937;SDS011;52756;52.826;6.214;2022-07-29T12:20:42;6.70;;;2.63;;
54937;SDS011;52756;52.826;6.214;2022-07-29T12:23:09;6.97;;;2.75;;
54937;SDS011;52756;52.826;6.214;2022-07-29T12:25:39;8.50;;;3.45;;
54937;SDS011;52756;52.826;6.214;2022-07-29T12:28:08;4.25;;;2.25;;
54937;SDS011;52756;52.826;6.214;2022-07-29T12:36:05;4.18;;;2.72;;
54937;SDS011;52756;52.826;6.214;2022-07-29T12:38:33;6.10;;;2.28;;
54937;SDS011;52756;52.826;6.214;2022-07-29T12:41:02;5.68;;;2.70;;
54937;SDS011;52756;52.826;6.214;2022-07-29T12:43:28;4.82;;;2.67;;
54937;SDS011;52756;52.826;6.214;2022-07-29T12:45:55;8.55;;;2.65;;
54937;SDS011;52756;52.826;6.214;2022-07-29T12:48:37;4.20;;;2.20;;
54937;SDS011;52756;52.826;6.214;2022-07-29T12:51:05;5.20;;;2.72;;
54937;SDS011;52756;52.826;6.214;2022-07-29T12:53:32;5.15;;;2.40;;
54937;SDS011;52756;52.826;6.214;2022-07-29T12:55:58;7.00;;;2.80;;
54937;SDS011;52756;52.826;6.214;2022-07-29T12:58:34;4.40;;;2.33;;
54937;SDS011;52756;52.826;6.214;2022-07-29T13:01:05;6.13;;;2.60;;
54937;SDS011;52756;52.826;6.214;2022-07-29T13:06:29;8.80;;;2.20;;
54937;SDS011;52756;52.826;6.214;2022-07-29T13:12:00;6.45;;;1.98;;
54937;SDS011;52756;52.826;6.214;2022-07-29T13:14:32;6.03;;;2.50;;
54937;SDS011;52756;52.826;6.214;2022-07-29T13:17:05;4.97;;;2.03;;
54937;SDS011;52756;52.826;6.214;2022-07-29T13:19:42;5.60;;;1.80;;
54937;SDS011;52756;52.826;6.214;2022-07-29T13:22:16;7.47;;;1.98;;
54937;SDS011;52756;52.826;6.214;2022-07-29T13:27:22;5.15;;;2.03;;
54937;SDS011;52756;52.826;6.214;2022-07-29T13:29:49;4.43;;;1.90;;
54937;SDS011;52756;52.826;6.214;2022-07-29T13:32:21;6.30;;;2.58;;
54937;SDS011;52756;52.826;6.214;2022-07-29T13:34:48;9.75;;;2.67;;
54937;SDS011;52756;52.826;6.214;2022-07-29T13:37:14;4.43;;;1.80;;
54937;SDS011;52756;52.826;6.214;2022-07-29T13:39:40;8.40;;;2.08;;
54937;SDS011;52756;52.826;6.214;2022-07-29T13:42:06;4.82;;;2.08;;
54937;SDS011;52756;52.826;6.214;2022-07-29T13:44:32;5.43;;;1.77;;
54937;SDS011;52756;52.826;6.214;2022-07-29T13:46:58;3.38;;;1.63;;
54937;SDS011;52756;52.826;6.214;2022-07-29T13:49:24;4.40;;;1.83;;
54937;SDS011;52756;52.826;6.214;2022-07-29T13:51:50;5.28;;;1.77;;
54937;SDS011;52756;52.826;6.214;2022-07-29T13:54:16;4.10;;;1.50;;
54937;SDS011;52756;52.826;6.214;2022-07-29T13:56:42;7.63;;;2.20;;
54937;SDS011;52756;52.826;6.214;2022-07-29T13:59:08;6.38;;;2.15;;
54937;SDS011;52756;52.826;6.214;2022-07-29T14:01:34;2.38;;;1.17;;
54937;SDS011;52756;52.826;6.214;2022-07-29T14:04:00;5.43;;;1.70;;
54937;SDS011;52756;52.826;6.214;2022-07-29T14:06:26;4.28;;;1.90;;
54937;SDS011;52756;52.826;6.214;2022-07-29T14:08:51;6.85;;;1.92;;
54937;SDS011;52756;52.826;6.214;2022-07-29T14:11:17;4.80;;;2.00;;
54937;SDS011;52756;52.826;6.214;2022-07-29T14:13:44;4.60;;;1.60;;
54937;SDS011;52756;52.826;6.214;2022-07-29T14:16:10;4.75;;;1.42;;
54937;SDS011;52756;52.826;6.214;2022-07-29T14:18:35;4.00;;;1.58;;
54937;SDS011;52756;52.826;6.214;2022-07-29T14:21:01;4.18;;;1.70;;
54937;SDS011;52756;52.826;6.214;2022-07-29T14:23:27;5.63;;;2.30;;
54937;SDS011;52756;52.826;6.214;2022-07-29T14:25:53;4.50;;;2.03;;
54937;SDS011;52756;52.826;6.214;2022-07-29T14:28:19;3.55;;;1.90;;
54937;SDS011;52756;52.826;6.214;2022-07-29T14:30:44;4.38;;;2.15;;
54937;SDS011;52756;52.826;6.214;2022-07-29T14:33:10;6.60;;;2.10;;
54937;SDS011;52756;52.826;6.214;2022-07-29T14:35:36;7.60;;;1.90;;
54937;SDS011;52756;52.826;6.214;2022-07-29T14:38:01;6.97;;;1.83;;
54937;SDS011;52756;52.826;6.214;2022-07-29T14:40:27;4.80;;;2.00;;
54937;SDS011;52756;52.826;6.214;2022-07-29T14:42:53;6.35;;;2.38;;
54937;SDS011;52756;52.826;6.214;2022-07-29T14:45:19;5.35;;;1.95;;
54937;SDS011;52756;52.826;6.214;2022-07-29T14:47:45;6.07;;;2.05;;
54937;SDS011;52756;52.826;6.214;2022-07-29T14:50:11;6.22;;;1.90;;
54937;SDS011;52756;52.826;6.214;2022-07-29T14:52:37;6.75;;;2.10;;
54937;SDS011;52756;52.826;6.214;2022-07-29T14:55:03;5.72;;;2.10;;
54937;SDS011;52756;52.826;6.214;2022-07-29T14:57:29;4.07;;;1.77;;
54937;SDS011;52756;52.826;6.214;2022-07-29T14:59:54;6.18;;;2.30;;
54937;SDS011;52756;52.826;6.214;2022-07-29T15:02:20;4.28;;;1.63;;
54937;SDS011;52756;52.826;6.214;2022-07-29T15:04:46;8.55;;;2.25;;
54937;SDS011;52756;52.826;6.214;2022-07-29T15:07:13;5.05;;;1.85;;
54937;SDS011;52756;52.826;6.214;2022-07-29T15:09:39;4.43;;;1.98;;
54937;SDS011;52756;52.826;6.214;2022-07-29T15:12:05;7.40;;;2.08;;
54937;SDS011;52756;52.826;6.214;2022-07-29T15:14:31;2.92;;;1.63;;
54937;SDS011;52756;52.826;6.214;2022-07-29T15:16:57;4.32;;;1.77;;
54937;SDS011;52756;52.826;6.214;2022-07-29T15:19:23;4.13;;;1.70;;
54937;SDS011;52756;52.826;6.214;2022-07-29T15:21:48;5.28;;;2.00;;
54937;SDS011;52756;52.826;6.214;2022-07-29T15:24:17;7.82;;;2.38;;
54937;SDS011;52756;52.826;6.214;2022-07-29T15:26:43;4.45;;;1.63;;
54937;SDS011;52756;52.826;6.214;2022-07-29T15:29:09;6.00;;;1.83;;
54937;SDS011;52756;52.826;6.214;2022-07-29T15:31:35;4.88;;;1.80;;
54937;SDS011;52756;52.826;6.214;2022-07-29T15:34:01;5.65;;;1.40;;
54937;SDS011;52756;52.826;6.214;2022-07-29T15:36:27;4.75;;;1.92;;
54937;SDS011;52756;52.826;6.214;2022-07-29T15:38:53;7.05;;;1.77;;
54937;SDS011;52756;52.826;6.214;2022-07-29T15:41:19;5.32;;;1.95;;